Here is the Quick Look data you requested

The Data originates at the National Weather Service, and is made available here by the UAlbany Department of Atmospheric and Environmental Sciences

Surface Observations

KESN 180150Z 12008KT 5SM -RA SCT010 OVC016 03/02 A2996=
KESN 180250Z 00000KT 5SM -RA BKN010 OVC020 03/02 A3000=
KESN 180317Z AUTO 00000KT 4SM RA BKN010 OVC020 03/02 A3000 RMK AO2 P0002
 T00340024=
KESN 180337Z AUTO 00000KT 4SM RA SCT008 SCT013 BKN018 04/03 A3000 RMK AO2 P0005
 T00350026=
KESN 180357Z AUTO 00000KT 3SM RA 03/03 A2999 RMK AO2 SKY OBSCURED P0008
 T00320025=
KESN 180417Z AUTO 00000KT 4SM RA BKN012 03/03 A2997 RMK AO2 P0002 T00320026=
KESN 180437Z AUTO 00000KT 5SM -RA OVC012 03/03 A2997 RMK AO2 P0002 T00330027=
KESN 180457Z AUTO 00000KT 4SM -RA SCT002 SCT006 OVC010 03/03 A2995 RMK AO2
 P0004 T00330027=
KESN 180517Z AUTO 14003KT 5SM -RA SCT003 OVC008 04/03 A2995 RMK AO2 T00350030=
KESN 180537Z AUTO 14005KT 5SM -RA SCT004 BKN008 OVC013 04/03 A2993 RMK AO2
 P0001 T00350030=
KESN 180557Z AUTO 16005KT 5SM -RA SCT004 BKN008 OVC014 04/03 A2993 RMK AO2
 P0002 60022 T00360031 10040 20031 400501032=
KESN 180617Z AUTO 14009KT 7SM -RA BKN004 OVC013 04/03 A2989 RMK AO2 P0001
 T00370032=
KESN 180637Z AUTO 20003KT 10SM -RA OVC004 04/04 A2991 RMK AO2 P0001 T00400035=
KESN 180657Z AUTO 19004KT 10SM -RA OVC004 04/04 A2990 RMK AO2 P0002 T00410035=
KESN 180717Z AUTO 18005KT 10SM -RA OVC004 04/04 A2988 RMK AO2 P0001 T00430037=
KESN 180737Z AUTO 17006KT 10SM -RA OVC004 05/04 A2987 RMK AO2 P0002 T00450038=
KESN 180757Z AUTO 16008KT 7SM RA BKN004 OVC010 05/04 A2984 RMK AO2 P0004
 T00450040=
KESN 180817Z AUTO 18008KT 7SM RA BKN004 OVC012 05/04 A2985 RMK AO2 P0002
 T00460041=
KESN 180837Z AUTO 17007KT 7SM RA BKN006 OVC011 05/04 A2982 RMK AO2 P0004
 T00480042=
KESN 180857Z AUTO 18009KT 10SM RA BKN006 OVC009 05/05 A2982 RMK AO2 P0006 60012
 T00500045=
KESN 180917Z AUTO 17007KT 10SM RA OVC006 05/05 A2978 RMK AO2 P0002 T00520046=
KESN 180937Z AUTO 19007KT 10SM -RA OVC006 05/05 A2980 RMK AO2 P0004 T00530047=
KESN 180957Z AUTO 20004KT 10SM -RA OVC006 06/05 A2979 RMK AO2 P0005 T00550048=
KESN 181017Z AUTO 30007KT 10SM -RA OVC006 06/05 A2982 RMK AO2 P0001 T00550050=
KESN 181037Z AUTO 28005KT 10SM -RA OVC006 06/05 A2982 RMK AO2 P0002 T00550049=
KESN 181041Z AUTO 29004KT 10SM -RA OVC006 06/05 A2983 RMK AO2 P0002 T00550049=
KESN 181050Z 28007KT 10SM -RA OVC006 05/04 A2985=
KESN 181150Z 28004KT 10SM -DZ SCT006 BKN019 OVC026 04/04 A2987=
KESN 181250Z 25003KT 10SM BKN032 05/04 A2991=
KESN 181359Z 28006KT 10SM BKN049 06/05 A2993=
KESN 181450Z 28008KT 10SM SCT047 07/05 A2994=
KESN 181550Z 28009G16KT 10SM BKN045 08/04 A2998=
KESN 181655Z 28011G20KT 10SM SCT120 10/02 A3000=
KESN 181750Z 29020G28KT 10SM SCT120 10/01 A3000=
KESN 181845Z 31016G22KT 10SM SCT055 09/M01 A3003=
KESN 181950Z 31013G21KT 10SM FEW050 BKN150 08/M02 A3007=
KESN 182050Z 30012G20KT 10SM FEW050 SCT150 BKN250 08/M02 A3011=
KESN 182150Z 30013G25KT 10SM SCT100 BKN250 07/M03 A3015=
KESN 182248Z 29013G20KT 10SM SCT120 BKN250 06/M03 A3019=
KESN 182350Z 30013G21KT 10SM SCT150 BKN250 05/M04 A3026=
KESN 190050Z 30014G22 KT 260V320 10SM BKN250 05/M04 A3029=
KESN 190050Z COR 30016G25KT 260V320 10SM BKN250 05/M04 A3029=
KESN 190150Z 31012G19KT 10SM SKC 04/M04 A3033=
KESN 190250Z 31010KT 10SM SKC 03/M04 A3036=
KESN 190317Z AUTO 32010G20KT 10SM CLR 03/M04 A3037 RMK AO2 T00331042=
KESN 190337Z AUTO 30015G18KT 10SM CLR 03/M05 A3039 RMK AO2 T00301050=
KESN 190357Z AUTO 31009G16KT 10SM CLR 03/M05 A3040 RMK AO2 T00301052=
KESN 190417Z AUTO 32011G15KT 10SM CLR 03/M05 A3041 RMK AO2 T00261055=
KESN 190437Z AUTO 33011G19KT 10SM CLR 03/M06 A3041 RMK AO2 T00251060=
KESN 190457Z AUTO 33008G14KT 10SM CLR 02/M06 A3043 RMK AO2 T00241057=
KESN 190517Z AUTO 32008G15KT 10SM CLR 02/M06 A3044 RMK AO2 T00211057=
KESN 190537Z AUTO 32010G15KT 10SM CLR 02/M06 A3044 RMK AO2 T00211060=
KESN 190557Z AUTO 32011G16KT 10SM CLR 02/M06 A3046 RMK AO2 T00171061 10052
 20017 401090017=
KESN 190617Z AUTO 32011KT 10SM CLR 02/M07 A3047 RMK AO2 T00151066=
KESN 190637Z AUTO 33007KT 10SM CLR 01/M07 A3048 RMK AO2 T00121066=
KESN 190657Z AUTO 32006KT 10SM CLR 01/M07 A3049 RMK AO2 T00101066=
KESN 190717Z AUTO 31012KT 10SM CLR 01/M07 A3049 RMK AO2 T00101067=
KESN 190737Z AUTO 32009KT 10SM CLR 01/M07 A3051 RMK AO2 T00091070=
KESN 190757Z AUTO 31010G16KT 10SM CLR 01/M07 A3051 RMK AO2 T00071071=